Airport ID:KBVU
Update Time (UTC):18/10/2019 16:21
Wind Speed (Knots):10
Wind Direction (Magnetic):340
Temperature (°C):19.2
Dew Point (°C):-6
Humidity (%):17.5
Altimeter (inHg):29.96
Density Altitude (Feet):03200
Visibility (Miles):10
Clouds (Hundreds of feet):CLR
Present Weather:
METAR:METAR KBVU 181620Z AUTO 36009G21KT 10SM CLR 19/M06 A2996 RMK AO2

The data displayed is for advisory purposes only and is not to be used for flight planning or operations.

This page is not automatically refreshed. Reload the page to see current data.